createdAt,value
2022-12-18T00:02:12.880Z,61.28
2022-12-18T00:05:00.203Z,53.70
2022-12-18T00:07:47.625Z,44.78
2022-12-18T00:10:35.051Z,43.20
2022-12-18T00:13:22.299Z,40.28
2022-12-18T00:16:12.494Z,39.10
2022-12-18T00:19:01.119Z,46.75
2022-12-18T00:21:48.305Z,41.22
2022-12-18T00:24:35.810Z,37.20
2022-12-18T00:27:22.983Z,52.15
2022-12-18T00:30:11.603Z,46.20
2022-12-18T00:32:59.013Z,51.70
2022-12-18T00:35:46.718Z,51.25
2022-12-18T00:38:35.515Z,55.90
2022-12-18T00:41:42.430Z,45.45
2022-12-18T00:44:29.556Z,53.65
2022-12-18T00:47:16.896Z,48.65
2022-12-18T00:50:04.753Z,45.47
2022-12-18T00:52:52.073Z,51.60
2022-12-18T00:55:41.107Z,43.95
2022-12-18T00:58:28.273Z,47.30
2022-12-18T01:01:16.391Z,42.42
2022-12-18T01:04:04.776Z,41.80
2022-12-18T01:06:52.330Z,39.28
2022-12-18T01:09:39.665Z,43.67
2022-12-18T01:12:26.986Z,40.38
2022-12-18T01:15:16.063Z,34.55
2022-12-18T01:18:03.205Z,48.72
2022-12-18T01:20:50.763Z,44.05
2022-12-18T01:23:39.220Z,47.38
2022-12-18T01:26:28.375Z,53.85
2022-12-18T01:29:16.010Z,48.20
2022-12-18T01:32:03.227Z,47.42
2022-12-18T01:34:50.417Z,43.90
2022-12-18T01:37:37.721Z,41.58
2022-12-18T01:40:25.342Z,55.33
2022-12-18T01:43:12.652Z,38.53
2022-12-18T01:46:01.086Z,43.78
2022-12-18T01:48:51.133Z,36.83
2022-12-18T01:51:38.457Z,38.72
2022-12-18T01:54:25.747Z,47.05
2022-12-18T01:57:13.093Z,41.92
2022-12-18T02:00:08.243Z,42.08
2022-12-18T02:02:56.266Z,48.75
2022-12-18T02:06:04.361Z,48.53
2022-12-18T02:09:00.444Z,50.65
2022-12-18T02:12:23.023Z,37.83
2022-12-18T02:15:20.413Z,48.63
2022-12-18T02:18:16.236Z,46.85
2022-12-18T02:21:22.346Z,54.20
2022-12-18T02:24:39.179Z,48.83
2022-12-18T02:27:28.980Z,49.83
2022-12-18T02:30:17.115Z,40.40
2022-12-18T02:33:08.065Z,39.15
2022-12-18T02:35:56.930Z,39.88
2022-12-18T02:38:46.798Z,46.45
2022-12-18T02:41:34.816Z,45.25
2022-12-18T02:44:22.411Z,41.45
2022-12-18T02:47:12.563Z,45.08
2022-12-18T02:49:59.925Z,44.47
2022-12-18T02:52:50.187Z,42.13
2022-12-18T02:55:49.029Z,48.17
2022-12-18T02:59:01.206Z,61.50
2022-12-18T03:02:01.124Z,42.63
2022-12-18T03:04:57.072Z,40.90
2022-12-18T03:07:57.954Z,58.92
2022-12-18T03:11:01.529Z,41.20
2022-12-18T03:13:58.846Z,49.40
2022-12-18T03:16:48.156Z,54.63
2022-12-18T03:19:36.675Z,43.00
2022-12-18T03:22:28.282Z,50.50
2022-12-18T03:25:17.538Z,44.47
2022-12-18T03:28:09.522Z,45.13
2022-12-18T03:30:59.998Z,57.40
2022-12-18T03:33:56.442Z,40.78
2022-12-18T03:36:43.945Z,52.28
2022-12-18T03:39:31.208Z,41.28
2022-12-18T03:42:42.119Z,38.58
2022-12-18T03:45:49.188Z,46.78
2022-12-18T03:48:45.643Z,38.95
2022-12-18T03:51:53.338Z,58.13
2022-12-18T03:54:42.227Z,45.67
2022-12-18T03:57:32.613Z,44.28
2022-12-18T04:00:20.672Z,41.67
2022-12-18T04:03:09.712Z,41.75
2022-12-18T04:06:00.089Z,46.97
2022-12-18T04:08:48.871Z,46.97
2022-12-18T04:11:36.155Z,49.67
2022-12-18T04:14:23.518Z,43.95
2022-12-18T04:17:10.656Z,41.67
2022-12-18T04:19:57.959Z,45.40
2022-12-18T04:22:45.415Z,44.28
2022-12-18T04:25:33.474Z,48.83
2022-12-18T04:28:20.827Z,40.08
2022-12-18T04:31:09.066Z,39.20
2022-12-18T04:33:56.282Z,64.97
2022-12-18T04:36:43.417Z,36.65
2022-12-18T04:39:30.787Z,51.58
2022-12-18T04:42:17.961Z,42.47
2022-12-18T04:45:06.161Z,40.42
2022-12-18T04:47:53.561Z,44.38
2022-12-18T04:50:40.690Z,41.53
2022-12-18T04:53:28.542Z,27.63
2022-12-18T04:56:16.835Z,47.95
2022-12-18T04:59:03.972Z,38.92
2022-12-18T05:01:51.214Z,58.45
2022-12-18T05:04:38.555Z,36.40
2022-12-18T05:07:26.088Z,38.13
2022-12-18T05:10:13.467Z,36.50
2022-12-18T05:13:01.195Z,43.40
2022-12-18T05:15:53.682Z,50.90
2022-12-18T05:18:41.128Z,35.92
2022-12-18T05:21:28.315Z,38.40
2022-12-18T05:24:15.564Z,47.78
2022-12-18T05:27:03.383Z,41.08
2022-12-18T05:29:50.519Z,38.22
2022-12-18T05:32:37.750Z,43.35
2022-12-18T05:35:25.060Z,47.58
2022-12-18T05:38:12.277Z,36.60
2022-12-18T05:40:59.777Z,41.97
2022-12-18T05:43:47.076Z,39.55
2022-12-18T05:46:34.569Z,38.78
2022-12-18T05:49:22.271Z,42.92
2022-12-18T05:52:09.986Z,32.97
2022-12-18T05:54:57.451Z,40.90
2022-12-18T05:57:44.568Z,33.97
2022-12-18T06:00:33.916Z,41.42
2022-12-18T06:03:21.136Z,28.25
2022-12-18T06:06:34.696Z,34.65
2022-12-18T06:09:22.495Z,35.50
2022-12-18T06:12:09.928Z,35.70
2022-12-18T06:14:57.422Z,36.90
2022-12-18T06:17:44.567Z,26.73
2022-12-18T06:20:33.819Z,34.83
2022-12-18T06:23:21.234Z,45.85
2022-12-18T06:26:10.918Z,38.95
2022-12-18T06:28:58.124Z,32.45
2022-12-18T06:31:46.163Z,36.90
2022-12-18T06:34:34.003Z,40.95
2022-12-18T06:37:21.221Z,34.17
2022-12-18T06:40:09.021Z,30.35
2022-12-18T06:42:56.487Z,34.50
2022-12-18T06:45:44.121Z,30.20
2022-12-18T06:48:31.605Z,35.78
2022-12-18T06:51:20.838Z,31.95
2022-12-18T06:54:08.450Z,38.25
2022-12-18T06:56:58.379Z,35.90
2022-12-18T06:59:45.707Z,25.25
2022-12-18T07:02:33.145Z,24.15
2022-12-18T07:05:20.615Z,30.23
2022-12-18T07:08:07.820Z,41.67
2022-12-18T07:10:56.452Z,38.72
2022-12-18T07:13:44.217Z,25.73
2022-12-18T07:16:31.763Z,30.88
2022-12-18T07:19:18.965Z,28.25
2022-12-18T07:22:06.392Z,35.83
2022-12-18T07:24:54.106Z,26.40
2022-12-18T07:27:41.262Z,32.30
2022-12-18T07:30:28.405Z,32.83
2022-12-18T07:33:15.888Z,29.95
2022-12-18T07:36:05.413Z,40.67
2022-12-18T07:38:54.067Z,33.22
2022-12-18T07:41:47.366Z,32.97
2022-12-18T07:44:34.802Z,30.63
2022-12-18T07:47:21.951Z,29.85
2022-12-18T07:50:09.917Z,30.27
2022-12-18T07:52:57.065Z,31.65
2022-12-18T07:56:17.845Z,37.90
2022-12-18T07:58:51.590Z,34.00
2022-12-18T08:01:38.789Z,39.70
2022-12-18T08:04:26.977Z,26.92
2022-12-18T08:07:14.320Z,33.17
2022-12-18T08:10:01.487Z,31.58
2022-12-18T08:12:52.639Z,32.70
2022-12-18T08:15:39.751Z,33.35
2022-12-18T08:18:27.042Z,32.88
2022-12-18T08:21:16.456Z,26.65
2022-12-18T08:24:04.047Z,33.17
2022-12-18T08:27:06.773Z,28.30
2022-12-18T08:29:59.419Z,30.73
2022-12-18T08:32:46.594Z,49.95
2022-12-18T08:35:42.480Z,35.85
2022-12-18T08:38:33.998Z,34.08
2022-12-18T08:41:21.565Z,31.27
2022-12-18T08:44:27.552Z,33.85
2022-12-18T08:47:14.944Z,28.58
2022-12-18T08:50:02.099Z,28.95
2022-12-18T08:52:49.241Z,30.30
2022-12-18T08:55:36.498Z,30.58
2022-12-18T08:58:23.669Z,32.90
2022-12-18T09:01:13.603Z,29.70
2022-12-18T09:04:00.843Z,37.58
2022-12-18T09:06:47.985Z,32.63
2022-12-18T09:09:35.378Z,27.52
2022-12-18T09:12:22.578Z,34.75
2022-12-18T09:15:10.085Z,34.28
2022-12-18T09:17:57.183Z,31.73
2022-12-18T09:20:44.927Z,26.13
2022-12-18T09:23:32.051Z,29.50
2022-12-18T09:26:23.754Z,32.22
2022-12-18T09:29:10.903Z,32.30
2022-12-18T09:31:58.627Z,31.00
2022-12-18T09:34:46.015Z,30.40
2022-12-18T09:37:33.284Z,26.40
2022-12-18T09:40:26.738Z,33.78
2022-12-18T09:43:23.433Z,31.60
2022-12-18T09:46:20.370Z,43.73
2022-12-18T09:49:14.124Z,50.40
2022-12-18T09:52:20.361Z,39.90
2022-12-18T09:55:37.127Z,36.73
2022-12-18T09:58:46.003Z,33.60
2022-12-18T10:01:43.187Z,30.20
2022-12-18T10:04:33.042Z,26.07
2022-12-18T10:07:45.717Z,35.13
2022-12-18T10:10:44.350Z,33.77
2022-12-18T10:13:40.977Z,35.73
2022-12-18T10:16:37.201Z,30.60
2022-12-18T10:19:41.847Z,33.97
2022-12-18T10:22:47.736Z,31.90
2022-12-18T10:26:05.479Z,27.33
2022-12-18T10:28:54.142Z,28.90
2022-12-18T10:31:41.433Z,30.13
2022-12-18T10:34:28.573Z,29.97
2022-12-18T10:37:21.207Z,26.30
2022-12-18T10:40:22.410Z,31.30
2022-12-18T10:43:15.559Z,26.73
2022-12-18T10:46:12.983Z,34.53
2022-12-18T10:49:00.210Z,33.60
2022-12-18T10:51:48.020Z,33.30
2022-12-18T10:54:36.440Z,39.03
2022-12-18T10:57:37.778Z,33.23
2022-12-18T11:00:30.949Z,33.27
2022-12-18T11:03:39.477Z,37.70
2022-12-18T11:06:27.321Z,27.03
2022-12-18T11:09:23.053Z,27.90
2022-12-18T11:13:22.157Z,31.50
2022-12-18T11:15:50.340Z,33.20
2022-12-18T11:18:29.136Z,27.03
2022-12-18T11:21:15.755Z,28.50
2022-12-18T11:24:03.063Z,29.30
2022-12-18T11:26:56.260Z,31.07
2022-12-18T11:29:47.022Z,29.73
2022-12-18T11:32:44.766Z,28.77
2022-12-18T11:35:22.758Z,31.20
2022-12-18T11:37:58.989Z,27.33
2022-12-18T11:40:41.651Z,29.23
2022-12-18T11:43:34.397Z,23.80
2022-12-18T11:46:19.981Z,27.20
2022-12-18T11:49:43.896Z,28.83
2022-12-18T11:52:16.303Z,28.53
2022-12-18T11:54:43.339Z,39.57
2022-12-18T11:57:36.449Z,27.27
2022-12-18T12:00:10.186Z,29.57
2022-12-18T12:03:11.106Z,29.83
2022-12-18T12:06:04.437Z,28.70
2022-12-18T12:08:43.393Z,28.97
2022-12-18T12:11:28.643Z,27.30
2022-12-18T12:14:04.891Z,28.33
2022-12-18T12:16:40.988Z,26.20
2022-12-18T12:19:17.222Z,31.87
2022-12-18T12:21:58.006Z,30.13
2022-12-18T12:24:28.178Z,28.27
2022-12-18T12:27:13.345Z,29.87
2022-12-18T12:30:01.525Z,30.20
2022-12-18T12:33:03.971Z,33.30
2022-12-18T12:35:49.826Z,30.70
2022-12-18T12:38:25.460Z,24.50
2022-12-18T12:41:07.017Z,24.73
2022-12-18T12:43:33.835Z,23.33
2022-12-18T12:46:12.889Z,27.20
2022-12-18T12:48:50.285Z,27.10
2022-12-18T12:51:24.976Z,27.83
2022-12-18T12:53:54.650Z,27.53
2022-12-18T12:56:23.104Z,25.50
2022-12-18T12:58:56.054Z,29.93
2022-12-18T13:01:32.594Z,23.03
2022-12-18T13:04:21.771Z,26.93
2022-12-18T13:07:11.503Z,24.97
2022-12-18T13:10:13.611Z,22.83
2022-12-18T13:13:01.896Z,25.20
2022-12-18T13:15:46.053Z,26.50
2022-12-18T13:18:23.652Z,26.50
2022-12-18T13:21:02.963Z,23.90
2022-12-18T13:23:37.429Z,25.77
2022-12-18T13:26:07.632Z,26.67
2022-12-18T13:28:47.091Z,21.30
2022-12-18T13:31:33.918Z,26.10
2022-12-18T13:34:31.194Z,24.03
2022-12-18T13:37:34.013Z,27.00
2022-12-18T13:40:01.214Z,17.73
2022-12-18T13:42:49.526Z,31.23
2022-12-18T13:45:50.662Z,23.83
2022-12-18T13:48:23.731Z,16.03
2022-12-18T13:50:59.299Z,18.20
2022-12-18T13:53:31.336Z,22.10
2022-12-18T13:55:59.203Z,19.00
2022-12-18T13:58:26.093Z,19.30
2022-12-18T14:00:53.272Z,18.63
2022-12-18T14:03:28.777Z,18.40
2022-12-18T14:06:10.057Z,16.67
2022-12-18T14:08:42.009Z,17.90
2022-12-18T14:11:23.780Z,21.27
2022-12-18T14:13:53.544Z,18.63
2022-12-18T14:16:20.924Z,22.67
2022-12-18T14:19:00.121Z,18.77
2022-12-18T14:21:46.145Z,16.67
2022-12-18T14:24:19.722Z,20.40
2022-12-18T14:26:51.066Z,22.50
2022-12-18T14:29:27.906Z,20.17
2022-12-18T14:32:17.812Z,18.87
2022-12-18T14:34:54.609Z,25.17
2022-12-18T14:37:27.319Z,20.30
2022-12-18T14:39:55.388Z,26.80
2022-12-18T14:42:22.605Z,16.93
2022-12-18T14:45:12.424Z,17.13
2022-12-18T14:47:36.746Z,21.30
2022-12-18T14:50:03.817Z,18.30
2022-12-18T14:52:33.130Z,17.10
2022-12-18T14:55:00.112Z,21.73
2022-12-18T14:57:33.593Z,18.20
2022-12-18T15:00:08.218Z,22.67
2022-12-18T15:02:37.088Z,23.23
2022-12-18T15:05:29.878Z,22.13
2022-12-18T15:07:59.637Z,19.80
2022-12-18T15:10:33.207Z,18.53
2022-12-18T15:13:01.374Z,19.63
2022-12-18T15:15:37.449Z,22.20
2022-12-18T15:18:04.121Z,17.90
2022-12-18T15:20:40.206Z,19.37
2022-12-18T15:23:33.989Z,20.23
2022-12-18T15:26:06.812Z,19.67
2022-12-18T15:28:56.968Z,19.50
2022-12-18T15:31:37.849Z,22.67
2022-12-18T15:34:23.797Z,19.87
2022-12-18T15:36:52.074Z,19.30
2022-12-18T15:39:18.778Z,23.97
2022-12-18T15:42:05.507Z,21.80
2022-12-18T15:44:32.389Z,20.50
2022-12-18T15:46:59.244Z,21.53
2022-12-18T15:49:26.087Z,25.20
2022-12-18T15:51:57.460Z,24.23
2022-12-18T15:54:44.179Z,19.87
2022-12-18T15:57:26.579Z,21.10
2022-12-18T15:59:56.638Z,22.87
2022-12-18T16:02:24.111Z,21.33
2022-12-18T16:04:54.876Z,26.80
2022-12-18T16:07:25.627Z,24.07
2022-12-18T16:09:52.782Z,22.07
2022-12-18T16:12:23.377Z,24.40
2022-12-18T16:14:50.145Z,19.70
2022-12-18T16:17:17.272Z,27.33
2022-12-18T16:19:44.110Z,22.13
2022-12-18T16:22:23.059Z,22.97
2022-12-18T16:24:50.984Z,22.60
2022-12-18T16:27:17.748Z,24.20
2022-12-18T16:29:44.786Z,21.83
2022-12-18T16:32:18.625Z,26.67
2022-12-18T16:34:46.268Z,26.10
2022-12-18T16:37:14.949Z,28.23
2022-12-18T16:39:42.428Z,25.67
2022-12-18T16:42:17.329Z,22.50
2022-12-18T16:44:44.551Z,24.53
2022-12-18T16:47:14.390Z,27.33
2022-12-18T16:49:42.689Z,27.37
2022-12-18T16:52:09.351Z,33.07
2022-12-18T16:54:36.588Z,31.47
2022-12-18T16:57:05.282Z,29.93
2022-12-18T16:59:31.991Z,29.60
2022-12-18T17:01:58.875Z,28.60
2022-12-18T17:04:25.582Z,24.93
2022-12-18T17:06:53.773Z,26.30
2022-12-18T17:09:25.141Z,28.17
2022-12-18T17:11:53.349Z,30.27
2022-12-18T17:14:23.104Z,35.33
2022-12-18T17:17:07.354Z,31.50
2022-12-18T17:19:36.672Z,28.30
2022-12-18T17:22:04.577Z,36.87
2022-12-18T17:24:34.745Z,30.80
2022-12-18T17:27:02.326Z,34.03
2022-12-18T17:29:29.084Z,34.47
2022-12-18T17:31:55.731Z,30.50
2022-12-18T17:34:24.305Z,34.93
2022-12-18T17:36:51.053Z,32.70
2022-12-18T17:39:20.434Z,27.07
2022-12-18T17:41:48.778Z,31.80
2022-12-18T17:44:17.061Z,27.67
2022-12-18T17:46:44.336Z,29.27
2022-12-18T17:49:11.505Z,25.97
2022-12-18T17:51:38.220Z,29.83
2022-12-18T17:54:05.360Z,30.90
2022-12-18T17:56:32.937Z,32.33
2022-12-18T17:59:00.071Z,33.30
2022-12-18T18:01:26.920Z,30.60
2022-12-18T18:03:56.156Z,26.70
2022-12-18T18:06:23.914Z,34.80
2022-12-18T18:08:50.869Z,29.03
2022-12-18T18:11:38.156Z,32.40
2022-12-18T18:14:08.429Z,31.30
2022-12-18T18:16:41.398Z,39.73
2022-12-18T18:19:10.992Z,35.87
2022-12-18T18:21:42.627Z,35.80
2022-12-18T18:24:11.660Z,38.33
2022-12-18T18:26:39.858Z,32.57
2022-12-18T18:29:09.503Z,33.70
2022-12-18T18:31:41.031Z,30.70
2022-12-18T18:34:08.945Z,32.57
2022-12-18T18:36:35.671Z,37.57
2022-12-18T18:39:02.358Z,29.97
2022-12-18T18:41:30.444Z,33.80
2022-12-18T18:43:58.297Z,35.87
2022-12-18T18:46:25.796Z,39.83
2022-12-18T18:48:52.907Z,31.17
2022-12-18T18:51:21.381Z,38.70
2022-12-18T18:53:51.130Z,34.97
2022-12-18T18:56:56.550Z,41.00
2022-12-18T18:59:06.854Z,35.13
2022-12-18T19:01:33.875Z,33.87
2022-12-18T19:04:02.271Z,39.57
2022-12-18T19:06:29.923Z,39.07
2022-12-18T19:08:59.038Z,38.27
2022-12-18T19:11:45.676Z,47.73
2022-12-18T19:14:14.469Z,35.57
2022-12-18T19:16:42.247Z,36.07
2022-12-18T19:19:09.451Z,37.00
2022-12-18T19:21:38.039Z,35.43
2022-12-18T19:24:05.871Z,34.93
2022-12-18T19:26:32.613Z,39.13
2022-12-18T19:29:07.582Z,34.83
2022-12-18T19:31:37.003Z,32.57
2022-12-18T19:34:07.346Z,36.70
2022-12-18T19:36:38.011Z,47.63
2022-12-18T19:39:13.492Z,36.60
2022-12-18T19:41:41.354Z,40.43
2022-12-18T19:44:09.934Z,34.20
2022-12-18T19:46:37.154Z,41.60
2022-12-18T19:49:10.407Z,34.33
2022-12-18T19:51:37.027Z,32.30
2022-12-18T19:54:04.518Z,39.27
2022-12-18T19:56:33.763Z,40.03
2022-12-18T19:59:01.064Z,35.83
2022-12-18T20:01:29.230Z,37.60
2022-12-18T20:03:57.445Z,35.10
2022-12-18T20:06:27.982Z,42.77
2022-12-18T20:09:00.279Z,34.77
2022-12-18T20:11:32.591Z,38.33
2022-12-18T20:14:02.709Z,41.43
2022-12-18T20:16:30.208Z,40.27
2022-12-18T20:18:58.426Z,38.13
2022-12-18T20:21:25.939Z,52.53
2022-12-18T20:23:53.130Z,41.73
2022-12-18T20:26:19.967Z,40.00
2022-12-18T20:28:46.910Z,39.83
2022-12-18T20:31:14.430Z,41.33
2022-12-18T20:33:42.608Z,38.00
2022-12-18T20:36:17.178Z,40.23
2022-12-18T20:38:48.375Z,42.57
2022-12-18T20:41:19.900Z,40.43
2022-12-18T20:43:47.889Z,36.47
2022-12-18T20:46:16.311Z,42.40
2022-12-18T20:48:44.822Z,35.87
2022-12-18T20:51:15.333Z,42.03
2022-12-18T20:53:42.961Z,43.83
2022-12-18T20:56:13.197Z,40.87
2022-12-18T20:58:44.830Z,39.60
2022-12-18T21:01:17.747Z,38.73
2022-12-18T21:03:46.679Z,35.50
2022-12-18T21:06:15.424Z,41.57
2022-12-18T21:08:43.079Z,35.10
2022-12-18T21:11:32.725Z,38.73
2022-12-18T21:14:00.340Z,41.57
2022-12-18T21:16:27.304Z,42.00
2022-12-18T21:18:55.734Z,36.10
2022-12-18T21:21:26.533Z,43.67
2022-12-18T21:23:54.676Z,35.03
2022-12-18T21:26:32.066Z,51.50
2022-12-18T21:29:01.886Z,43.57
2022-12-18T21:31:31.960Z,37.60
2022-12-18T21:34:02.474Z,38.80
2022-12-18T21:36:30.708Z,33.27
2022-12-18T21:38:59.143Z,37.10
2022-12-18T21:41:45.466Z,30.70
2022-12-18T21:44:18.040Z,39.63
2022-12-18T21:46:52.964Z,39.57
2022-12-18T21:49:22.960Z,43.87
2022-12-18T21:51:52.798Z,36.90
2022-12-18T21:54:20.608Z,41.90
2022-12-18T21:56:56.285Z,36.23
2022-12-18T21:59:43.374Z,36.17
2022-12-18T22:02:16.428Z,36.73
2022-12-18T22:04:45.133Z,38.30
2022-12-18T22:07:12.684Z,42.07
2022-12-18T22:09:39.635Z,40.23
2022-12-18T22:12:08.915Z,36.07
2022-12-18T22:14:36.330Z,46.17
2022-12-18T22:17:03.421Z,46.27
2022-12-18T22:19:31.040Z,38.23
2022-12-18T22:21:58.005Z,46.30
2022-12-18T22:24:26.640Z,40.23
2022-12-18T22:27:02.029Z,44.20
2022-12-18T22:29:47.652Z,54.60
2022-12-18T22:32:17.085Z,35.60
2022-12-18T22:35:01.732Z,37.30
2022-12-18T22:37:32.046Z,35.87
2022-12-18T22:39:59.003Z,38.80
2022-12-18T22:42:29.712Z,40.77
2022-12-18T22:44:57.000Z,38.23
2022-12-18T22:47:29.256Z,42.03
2022-12-18T22:49:56.966Z,41.77
2022-12-18T22:52:24.864Z,39.40
2022-12-18T22:54:53.571Z,38.27
2022-12-18T22:57:22.044Z,36.43
2022-12-18T22:59:52.214Z,42.80
2022-12-18T23:02:19.753Z,37.63
2022-12-18T23:04:47.749Z,40.67
2022-12-18T23:07:15.148Z,42.50
2022-12-18T23:09:42.441Z,35.90
2022-12-18T23:12:20.153Z,38.07
2022-12-18T23:14:47.495Z,35.87
2022-12-18T23:17:14.391Z,38.40
2022-12-18T23:19:47.109Z,38.63
2022-12-18T23:22:15.605Z,36.77
2022-12-18T23:24:42.705Z,39.87
2022-12-18T23:27:11.670Z,44.50
2022-12-18T23:29:39.859Z,38.20
2022-12-18T23:32:07.154Z,46.67
2022-12-18T23:34:34.102Z,39.70
2022-12-18T23:37:01.329Z,37.57
2022-12-18T23:39:29.538Z,36.47
2022-12-18T23:42:00.981Z,34.53
2022-12-18T23:44:28.174Z,39.87
2022-12-18T23:46:55.917Z,39.47
2022-12-18T23:49:22.979Z,35.37
2022-12-18T23:51:50.186Z,38.60
2022-12-18T23:54:17.125Z,40.00
2022-12-18T23:56:49.726Z,45.73
2022-12-18T23:59:19.338Z,35.97
